Terminal Aerodrome Forecast
Issued by NWS Boston, MA

Home | Current Version | Previous Version | Text Only | Print | Product List | Glossary On
Versions: 1 2 3 4 5 6 7 8 9 10 11 12 13 14 15 16 17 18 19 20 21 22 23 24 25 26 27 28 29 30 31 32 33 34 35 36 37 38 39 40 41 42 43 44 45 46 47 48 49 50
541
FTUS41 KBOX 191534 AAA
TAFPVD
TAF AMD
KPVD 191534Z 1916/2012 22016G24KT 6SM -SHRA BR SCT015 BKN040
     FM191700 28022G38KT P6SM BKN040
     FM191900 28019G37KT P6SM SCT080
     FM200300 27010G25KT P6SM SKC
     FM200600 27010G21KT P6SM SCT035
     FM200900 27010G21KT P6SM SCT030
     FM201000 27010G23KT P6SM SCT040=

USA.gov is the U.S. government's official web portal to all federal, state and local government web resources and services.